sensor_id;sensor_type;location;lat;lon;timestamp;temperature;humidity
19340;HTU21D;9804;52.350;6.684;2023-05-07T00:01:42;17.38;-6.00
19340;HTU21D;9804;52.350;6.684;2023-05-07T00:04:08;17.62;-6.00
19340;HTU21D;9804;52.350;6.684;2023-05-07T00:06:33;17.78;-6.00
19340;HTU21D;9804;52.350;6.684;2023-05-07T00:08:59;17.81;-6.00
19340;HTU21D;9804;52.350;6.684;2023-05-07T00:11:26;17.83;-6.00
19340;HTU21D;9804;52.350;6.684;2023-05-07T00:13:52;17.80;-6.00
19340;HTU21D;9804;52.350;6.684;2023-05-07T00:16:17;17.76;-6.00
19340;HTU21D;9804;52.350;6.684;2023-05-07T00:18:43;17.70;-6.00
19340;HTU21D;9804;52.350;6.684;2023-05-07T00:21:08;17.79;-6.00
19340;HTU21D;9804;52.350;6.684;2023-05-07T00:23:33;17.79;-6.00
19340;HTU21D;9804;52.350;6.684;2023-05-07T00:25:59;17.90;-6.00
19340;HTU21D;9804;52.350;6.684;2023-05-07T00:28:24;17.95;-6.00
19340;HTU21D;9804;52.350;6.684;2023-05-07T00:30:50;17.79;-6.00
19340;HTU21D;9804;52.350;6.684;2023-05-07T00:33:15;17.70;-6.00
19340;HTU21D;9804;52.350;6.684;2023-05-07T00:35:43;17.75;-6.00
19340;HTU21D;9804;52.350;6.684;2023-05-07T00:38:08;17.73;-6.00
19340;HTU21D;9804;52.350;6.684;2023-05-07T00:40:34;17.65;-6.00
19340;HTU21D;9804;52.350;6.684;2023-05-07T00:42:59;17.84;-6.00
19340;HTU21D;9804;52.350;6.684;2023-05-07T00:45:26;17.85;-6.00
19340;HTU21D;9804;52.350;6.684;2023-05-07T00:47:57;17.70;-6.00
19340;HTU21D;9804;52.350;6.684;2023-05-07T00:50:23;17.54;-6.00
19340;HTU21D;9804;52.350;6.684;2023-05-07T00:52:49;17.61;-6.00
19340;HTU21D;9804;52.350;6.684;2023-05-07T00:55:14;17.50;-6.00
19340;HTU21D;9804;52.350;6.684;2023-05-07T00:57:40;17.46;-6.00
19340;HTU21D;9804;52.350;6.684;2023-05-07T01:00:07;17.49;-6.00
19340;HTU21D;9804;52.350;6.684;2023-05-07T01:02:38;17.38;-6.00
19340;HTU21D;9804;52.350;6.684;2023-05-07T01:05:06;17.29;-6.00
19340;HTU21D;9804;52.350;6.684;2023-05-07T01:07:33;17.30;-6.00
19340;HTU21D;9804;52.350;6.684;2023-05-07T01:10:00;17.26;-6.00
19340;HTU21D;9804;52.350;6.684;2023-05-07T01:12:26;17.35;-6.00
19340;HTU21D;9804;52.350;6.684;2023-05-07T01:14:53;17.28;-6.00
19340;HTU21D;9804;52.350;6.684;2023-05-07T01:17:18;17.28;-6.00
19340;HTU21D;9804;52.350;6.684;2023-05-07T01:19:44;17.33;-6.00
19340;HTU21D;9804;52.350;6.684;2023-05-07T01:22:10;17.17;-6.00
19340;HTU21D;9804;52.350;6.684;2023-05-07T01:24:40;17.24;-6.00
19340;HTU21D;9804;52.350;6.684;2023-05-07T01:27:05;17.23;-6.00
19340;HTU21D;9804;52.350;6.684;2023-05-07T01:29:31;17.13;-6.00
19340;HTU21D;9804;52.350;6.684;2023-05-07T01:31:58;17.03;-6.00
19340;HTU21D;9804;52.350;6.684;2023-05-07T01:34:25;16.77;-6.00
19340;HTU21D;9804;52.350;6.684;2023-05-07T01:36:53;16.91;-6.00
19340;HTU21D;9804;52.350;6.684;2023-05-07T01:39:20;16.86;-6.00
19340;HTU21D;9804;52.350;6.684;2023-05-07T01:41:46;16.90;-6.00
19340;HTU21D;9804;52.350;6.684;2023-05-07T01:44:13;16.90;-6.00
19340;HTU21D;9804;52.350;6.684;2023-05-07T01:46:40;16.76;-6.00
19340;HTU21D;9804;52.350;6.684;2023-05-07T01:49:05;16.72;-6.00
19340;HTU21D;9804;52.350;6.684;2023-05-07T01:51:31;16.62;-6.00
19340;HTU21D;9804;52.350;6.684;2023-05-07T01:53:56;16.78;-6.00
19340;HTU21D;9804;52.350;6.684;2023-05-07T01:56:24;16.48;-6.00
19340;HTU21D;9804;52.350;6.684;2023-05-07T01:58:50;16.32;-6.00
19340;HTU21D;9804;52.350;6.684;2023-05-07T02:01:16;16.44;-6.00
19340;HTU21D;9804;52.350;6.684;2023-05-07T02:03:42;16.47;-6.00
19340;HTU21D;9804;52.350;6.684;2023-05-07T02:06:07;16.40;-6.00
19340;HTU21D;9804;52.350;6.684;2023-05-07T02:08:33;16.42;-6.00
19340;HTU21D;9804;52.350;6.684;2023-05-07T02:10:58;16.20;-6.00
19340;HTU21D;9804;52.350;6.684;2023-05-07T02:13:23;16.30;-6.00
19340;HTU21D;9804;52.350;6.684;2023-05-07T02:15:49;16.42;-6.00
19340;HTU21D;9804;52.350;6.684;2023-05-07T02:18:16;16.27;-6.00
19340;HTU21D;9804;52.350;6.684;2023-05-07T02:20:42;16.27;-6.00
19340;HTU21D;9804;52.350;6.684;2023-05-07T02:23:07;16.30;-6.00
19340;HTU21D;9804;52.350;6.684;2023-05-07T02:25:33;16.29;-6.00
19340;HTU21D;9804;52.350;6.684;2023-05-07T02:27:58;16.29;-6.00
19340;HTU21D;9804;52.350;6.684;2023-05-07T02:30:24;16.29;-6.00
19340;HTU21D;9804;52.350;6.684;2023-05-07T02:32:50;16.01;-6.00
19340;HTU21D;9804;52.350;6.684;2023-05-07T02:35:15;16.14;-6.00
19340;HTU21D;9804;52.350;6.684;2023-05-07T02:37:41;16.32;-6.00
19340;HTU21D;9804;52.350;6.684;2023-05-07T02:40:07;16.18;-6.00
19340;HTU21D;9804;52.350;6.684;2023-05-07T02:42:32;16.04;-6.00
19340;HTU21D;9804;52.350;6.684;2023-05-07T02:44:58;16.10;-6.00
19340;HTU21D;9804;52.350;6.684;2023-05-07T02:47:23;16.04;-6.00
19340;HTU21D;9804;52.350;6.684;2023-05-07T02:49:48;15.97;-6.00
19340;HTU21D;9804;52.350;6.684;2023-05-07T02:52:14;15.93;-6.00
19340;HTU21D;9804;52.350;6.684;2023-05-07T02:54:39;15.80;-6.00
19340;HTU21D;9804;52.350;6.684;2023-05-07T02:57:04;15.67;-6.00
19340;HTU21D;9804;52.350;6.684;2023-05-07T02:59:30;15.96;-6.00
19340;HTU21D;9804;52.350;6.684;2023-05-07T03:01:55;15.98;-6.00
19340;HTU21D;9804;52.350;6.684;2023-05-07T03:04:20;15.96;-6.00
19340;HTU21D;9804;52.350;6.684;2023-05-07T03:06:46;16.11;-6.00
19340;HTU21D;9804;52.350;6.684;2023-05-07T03:09:11;15.98;-6.00
19340;HTU21D;9804;52.350;6.684;2023-05-07T03:11:37;15.96;-6.00
19340;HTU21D;9804;52.350;6.684;2023-05-07T03:14:02;16.00;-6.00
19340;HTU21D;9804;52.350;6.684;2023-05-07T03:16:28;15.93;-6.00
19340;HTU21D;9804;52.350;6.684;2023-05-07T03:18:53;15.87;-6.00
19340;HTU21D;9804;52.350;6.684;2023-05-07T03:21:19;15.59;-6.00
19340;HTU21D;9804;52.350;6.684;2023-05-07T03:23:44;15.65;-6.00
19340;HTU21D;9804;52.350;6.684;2023-05-07T03:26:10;15.58;-6.00
19340;HTU21D;9804;52.350;6.684;2023-05-07T03:28:36;15.46;-6.00
19340;HTU21D;9804;52.350;6.684;2023-05-07T03:31:01;15.73;-6.00
19340;HTU21D;9804;52.350;6.684;2023-05-07T03:33:27;15.37;-6.00
19340;HTU21D;9804;52.350;6.684;2023-05-07T03:35:53;15.53;-6.00
19340;HTU21D;9804;52.350;6.684;2023-05-07T03:38:18;15.46;-6.00
19340;HTU21D;9804;52.350;6.684;2023-05-07T03:40:43;15.42;-6.00
19340;HTU21D;9804;52.350;6.684;2023-05-07T03:43:09;15.56;-6.00
19340;HTU21D;9804;52.350;6.684;2023-05-07T03:45:34;15.38;-6.00
19340;HTU21D;9804;52.350;6.684;2023-05-07T03:48:00;15.62;-6.00
19340;HTU21D;9804;52.350;6.684;2023-05-07T03:50:25;15.54;-6.00
19340;HTU21D;9804;52.350;6.684;2023-05-07T03:52:51;15.41;-6.00
19340;HTU21D;9804;52.350;6.684;2023-05-07T03:55:16;15.42;-6.00
19340;HTU21D;9804;52.350;6.684;2023-05-07T03:57:42;15.53;-6.00
19340;HTU21D;9804;52.350;6.684;2023-05-07T04:00:07;15.42;-6.00
19340;HTU21D;9804;52.350;6.684;2023-05-07T04:02:33;15.40;-6.00
19340;HTU21D;9804;52.350;6.684;2023-05-07T04:04:59;15.19;-6.00
19340;HTU21D;9804;52.350;6.684;2023-05-07T04:07:24;15.25;-6.00
19340;HTU21D;9804;52.350;6.684;2023-05-07T04:09:49;15.07;-6.00
19340;HTU21D;9804;52.350;6.684;2023-05-07T04:12:15;15.24;-6.00
19340;HTU21D;9804;52.350;6.684;2023-05-07T04:14:40;15.22;-6.00
19340;HTU21D;9804;52.350;6.684;2023-05-07T04:17:06;15.46;-6.00
19340;HTU21D;9804;52.350;6.684;2023-05-07T04:19:33;15.32;-6.00
19340;HTU21D;9804;52.350;6.684;2023-05-07T04:21:58;15.15;-6.00
19340;HTU21D;9804;52.350;6.684;2023-05-07T04:24:24;14.81;-6.00
19340;HTU21D;9804;52.350;6.684;2023-05-07T04:26:49;15.22;-6.00
19340;HTU21D;9804;52.350;6.684;2023-05-07T04:29:16;15.14;-6.00
19340;HTU21D;9804;52.350;6.684;2023-05-07T04:31:42;15.02;-6.00
19340;HTU21D;9804;52.350;6.684;2023-05-07T04:34:10;14.98;-6.00
19340;HTU21D;9804;52.350;6.684;2023-05-07T04:36:37;14.98;-6.00
19340;HTU21D;9804;52.350;6.684;2023-05-07T04:39:03;15.27;-6.00
19340;HTU21D;9804;52.350;6.684;2023-05-07T04:41:29;15.21;-6.00
19340;HTU21D;9804;52.350;6.684;2023-05-07T04:43:54;15.00;-6.00
19340;HTU21D;9804;52.350;6.684;2023-05-07T04:46:20;15.10;-6.00
19340;HTU21D;9804;52.350;6.684;2023-05-07T04:48:45;15.13;-6.00
19340;HTU21D;9804;52.350;6.684;2023-05-07T04:51:11;14.94;-6.00
19340;HTU21D;9804;52.350;6.684;2023-05-07T04:53:37;15.09;-6.00
19340;HTU21D;9804;52.350;6.684;2023-05-07T04:56:03;15.29;-6.00
19340;HTU21D;9804;52.350;6.684;2023-05-07T04:58:28;15.26;-6.00
19340;HTU21D;9804;52.350;6.684;2023-05-07T05:00:57;15.21;-6.00
19340;HTU21D;9804;52.350;6.684;2023-05-07T05:03:22;15.00;-6.00
19340;HTU21D;9804;52.350;6.684;2023-05-07T05:05:49;15.12;-6.00
19340;HTU21D;9804;52.350;6.684;2023-05-07T05:08:15;15.28;-6.00
19340;HTU21D;9804;52.350;6.684;2023-05-07T05:10:40;15.24;-6.00
19340;HTU21D;9804;52.350;6.684;2023-05-07T05:13:07;15.26;-6.00
19340;HTU21D;9804;52.350;6.684;2023-05-07T05:15:33;14.98;-6.00
19340;HTU21D;9804;52.350;6.684;2023-05-07T05:17:58;15.46;-6.00
19340;HTU21D;9804;52.350;6.684;2023-05-07T05:20:23;15.13;-6.00
19340;HTU21D;9804;52.350;6.684;2023-05-07T05:22:49;15.32;-6.00
19340;HTU21D;9804;52.350;6.684;2023-05-07T05:25:14;15.26;-6.00
19340;HTU21D;9804;52.350;6.684;2023-05-07T05:27:40;15.45;-6.00
19340;HTU21D;9804;52.350;6.684;2023-05-07T05:30:06;15.23;-6.00
19340;HTU21D;9804;52.350;6.684;2023-05-07T05:32:31;15.42;-6.00
19340;HTU21D;9804;52.350;6.684;2023-05-07T05:34:56;15.24;-6.00
19340;HTU21D;9804;52.350;6.684;2023-05-07T05:37:22;15.54;-6.00
19340;HTU21D;9804;52.350;6.684;2023-05-07T05:39:47;15.67;-6.00
19340;HTU21D;9804;52.350;6.684;2023-05-07T05:42:13;15.34;-6.00
19340;HTU21D;9804;52.350;6.684;2023-05-07T05:44:38;15.41;-6.00
19340;HTU21D;9804;52.350;6.684;2023-05-07T05:47:04;15.39;-6.00
19340;HTU21D;9804;52.350;6.684;2023-05-07T05:49:29;15.26;-6.00
19340;HTU21D;9804;52.350;6.684;2023-05-07T05:51:55;15.52;-6.00
19340;HTU21D;9804;52.350;6.684;2023-05-07T05:54:24;15.30;-6.00
19340;HTU21D;9804;52.350;6.684;2023-05-07T05:56:49;15.36;-6.00
19340;HTU21D;9804;52.350;6.684;2023-05-07T05:59:15;15.60;-6.00
19340;HTU21D;9804;52.350;6.684;2023-05-07T06:01:40;15.74;-6.00
19340;HTU21D;9804;52.350;6.684;2023-05-07T06:04:05;15.83;-6.00
19340;HTU21D;9804;52.350;6.684;2023-05-07T06:06:31;15.62;-6.00
19340;HTU21D;9804;52.350;6.684;2023-05-07T06:08:57;15.65;-6.00
19340;HTU21D;9804;52.350;6.684;2023-05-07T06:11:26;15.60;-6.00
19340;HTU21D;9804;52.350;6.684;2023-05-07T06:13:51;15.53;-6.00
19340;HTU21D;9804;52.350;6.684;2023-05-07T06:16:17;15.75;-6.00
19340;HTU21D;9804;52.350;6.684;2023-05-07T06:18:42;15.98;-6.00
19340;HTU21D;9804;52.350;6.684;2023-05-07T06:21:08;16.15;-6.00
19340;HTU21D;9804;52.350;6.684;2023-05-07T06:23:33;16.32;-6.00
19340;HTU21D;9804;52.350;6.684;2023-05-07T06:25:58;16.43;-6.00
19340;HTU21D;9804;52.350;6.684;2023-05-07T06:28:24;16.55;-6.00
19340;HTU21D;9804;52.350;6.684;2023-05-07T06:30:49;16.19;-6.00
19340;HTU21D;9804;52.350;6.684;2023-05-07T06:33:17;16.13;-6.00
19340;HTU21D;9804;52.350;6.684;2023-05-07T06:35:43;16.35;-6.00
19340;HTU21D;9804;52.350;6.684;2023-05-07T06:38:08;16.45;-6.00
19340;HTU21D;9804;52.350;6.684;2023-05-07T06:40:33;16.51;-6.00
19340;HTU21D;9804;52.350;6.684;2023-05-07T06:42:59;16.74;-6.00
19340;HTU21D;9804;52.350;6.684;2023-05-07T06:45:24;16.93;-6.00
19340;HTU21D;9804;52.350;6.684;2023-05-07T06:47:50;16.89;-6.00
19340;HTU21D;9804;52.350;6.684;2023-05-07T06:50:15;16.44;-6.00
19340;HTU21D;9804;52.350;6.684;2023-05-07T06:52:42;16.41;-6.00
19340;HTU21D;9804;52.350;6.684;2023-05-07T06:55:08;16.78;-6.00
19340;HTU21D;9804;52.350;6.684;2023-05-07T06:57:33;16.37;-6.00
19340;HTU21D;9804;52.350;6.684;2023-05-07T06:59:58;16.60;-6.00
19340;HTU21D;9804;52.350;6.684;2023-05-07T07:02:24;16.71;-6.00
19340;HTU21D;9804;52.350;6.684;2023-05-07T07:04:49;16.82;-6.00
19340;HTU21D;9804;52.350;6.684;2023-05-07T07:07:14;16.79;-6.00
19340;HTU21D;9804;52.350;6.684;2023-05-07T07:09:40;16.85;-6.00
19340;HTU21D;9804;52.350;6.684;2023-05-07T07:12:05;16.78;-6.00
19340;HTU21D;9804;52.350;6.684;2023-05-07T07:14:31;17.29;-6.00
19340;HTU21D;9804;52.350;6.684;2023-05-07T07:16:56;17.25;-6.00
19340;HTU21D;9804;52.350;6.684;2023-05-07T07:19:21;17.36;-6.00
19340;HTU21D;9804;52.350;6.684;2023-05-07T07:21:47;17.65;-6.00
19340;HTU21D;9804;52.350;6.684;2023-05-07T07:24:13;17.96;-6.00
19340;HTU21D;9804;52.350;6.684;2023-05-07T07:26:44;17.65;-6.00
19340;HTU21D;9804;52.350;6.684;2023-05-07T07:29:09;17.59;-6.00
19340;HTU21D;9804;52.350;6.684;2023-05-07T07:31:34;17.30;-6.00
19340;HTU21D;9804;52.350;6.684;2023-05-07T07:34:00;17.44;-6.00
19340;HTU21D;9804;52.350;6.684;2023-05-07T07:36:25;17.26;-6.00
19340;HTU21D;9804;52.350;6.684;2023-05-07T07:38:52;17.74;-6.00
19340;HTU21D;9804;52.350;6.684;2023-05-07T07:41:17;17.69;-6.00
19340;HTU21D;9804;52.350;6.684;2023-05-07T07:43:43;17.56;-6.00
19340;HTU21D;9804;52.350;6.684;2023-05-07T07:46:08;17.60;-6.00
19340;HTU21D;9804;52.350;6.684;2023-05-07T07:48:34;17.99;-6.00
19340;HTU21D;9804;52.350;6.684;2023-05-07T07:50:59;17.77;-6.00
19340;HTU21D;9804;52.350;6.684;2023-05-07T07:53:24;17.68;-6.00
19340;HTU21D;9804;52.350;6.684;2023-05-07T07:55:50;18.09;-6.00
19340;HTU21D;9804;52.350;6.684;2023-05-07T07:58:15;18.07;-6.00
19340;HTU21D;9804;52.350;6.684;2023-05-07T08:00:41;18.09;-6.00
19340;HTU21D;9804;52.350;6.684;2023-05-07T08:03:09;18.13;-6.00
19340;HTU21D;9804;52.350;6.684;2023-05-07T08:05:35;18.03;-6.00
19340;HTU21D;9804;52.350;6.684;2023-05-07T08:08:00;18.37;-6.00
19340;HTU21D;9804;52.350;6.684;2023-05-07T08:10:26;18.35;-6.00
19340;HTU21D;9804;52.350;6.684;2023-05-07T08:12:51;17.93;-6.00
19340;HTU21D;9804;52.350;6.684;2023-05-07T08:15:17;18.42;-6.00
19340;HTU21D;9804;52.350;6.684;2023-05-07T08:17:43;18.43;-6.00
19340;HTU21D;9804;52.350;6.684;2023-05-07T08:20:09;18.57;-6.00
19340;HTU21D;9804;52.350;6.684;2023-05-07T08:22:35;18.47;-6.00
19340;HTU21D;9804;52.350;6.684;2023-05-07T08:25:01;18.53;-6.00
19340;HTU21D;9804;52.350;6.684;2023-05-07T08:27:27;18.69;-6.00
19340;HTU21D;9804;52.350;6.684;2023-05-07T08:29:52;18.48;-6.00
19340;HTU21D;9804;52.350;6.684;2023-05-07T08:32:17;18.87;-6.00
19340;HTU21D;9804;52.350;6.684;2023-05-07T08:34:43;19.39;-6.00
19340;HTU21D;9804;52.350;6.684;2023-05-07T08:37:08;19.15;-6.00
19340;HTU21D;9804;52.350;6.684;2023-05-07T08:39:33;18.98;-6.00
19340;HTU21D;9804;52.350;6.684;2023-05-07T08:42:00;18.79;-6.00
19340;HTU21D;9804;52.350;6.684;2023-05-07T08:44:33;18.62;-6.00
19340;HTU21D;9804;52.350;6.684;2023-05-07T08:47:01;18.86;-6.00
19340;HTU21D;9804;52.350;6.684;2023-05-07T08:49:27;18.80;-6.00
19340;HTU21D;9804;52.350;6.684;2023-05-07T08:51:53;19.35;-6.00
19340;HTU21D;9804;52.350;6.684;2023-05-07T08:54:20;19.62;-6.00
19340;HTU21D;9804;52.350;6.684;2023-05-07T08:56:46;19.21;-6.00
19340;HTU21D;9804;52.350;6.684;2023-05-07T08:59:11;19.38;-6.00
19340;HTU21D;9804;52.350;6.684;2023-05-07T09:01:36;19.24;-6.00
19340;HTU21D;9804;52.350;6.684;2023-05-07T09:04:02;19.82;-6.00
19340;HTU21D;9804;52.350;6.684;2023-05-07T09:06:27;19.88;-6.00
19340;HTU21D;9804;52.350;6.684;2023-05-07T09:08:54;19.70;-6.00
19340;HTU21D;9804;52.350;6.684;2023-05-07T09:11:20;19.55;-6.00
19340;HTU21D;9804;52.350;6.684;2023-05-07T09:13:46;19.90;-6.00
19340;HTU21D;9804;52.350;6.684;2023-05-07T09:16:12;19.45;-6.00
19340;HTU21D;9804;52.350;6.684;2023-05-07T09:18:44;20.00;-6.00
19340;HTU21D;9804;52.350;6.684;2023-05-07T09:21:11;19.83;-6.00
19340;HTU21D;9804;52.350;6.684;2023-05-07T09:23:39;19.77;-6.00
19340;HTU21D;9804;52.350;6.684;2023-05-07T09:26:05;19.76;-6.00
19340;HTU21D;9804;52.350;6.684;2023-05-07T09:28:38;19.71;-6.00
19340;HTU21D;9804;52.350;6.684;2023-05-07T09:31:03;19.86;-6.00
19340;HTU21D;9804;52.350;6.684;2023-05-07T09:33:29;20.58;-6.00
19340;HTU21D;9804;52.350;6.684;2023-05-07T09:35:55;20.72;-6.00
19340;HTU21D;9804;52.350;6.684;2023-05-07T09:38:21;20.24;-6.00
19340;HTU21D;9804;52.350;6.684;2023-05-07T09:40:47;20.70;-6.00
19340;HTU21D;9804;52.350;6.684;2023-05-07T09:43:13;20.89;-6.00
19340;HTU21D;9804;52.350;6.684;2023-05-07T09:45:39;21.14;-6.00
19340;HTU21D;9804;52.350;6.684;2023-05-07T09:48:05;21.36;-6.00
19340;HTU21D;9804;52.350;6.684;2023-05-07T09:50:40;20.98;-6.00
19340;HTU21D;9804;52.350;6.684;2023-05-07T09:53:09;21.02;-6.00
19340;HTU21D;9804;52.350;6.684;2023-05-07T09:55:35;21.40;-6.00
19340;HTU21D;9804;52.350;6.684;2023-05-07T09:58:01;21.15;-6.00
19340;HTU21D;9804;52.350;6.684;2023-05-07T10:00:28;20.78;-6.00
19340;HTU21D;9804;52.350;6.684;2023-05-07T10:02:56;21.10;-6.00
19340;HTU21D;9804;52.350;6.684;2023-05-07T10:05:22;21.13;-6.00
19340;HTU21D;9804;52.350;6.684;2023-05-07T10:07:48;21.08;-6.00
19340;HTU21D;9804;52.350;6.684;2023-05-07T10:10:14;20.77;-6.00
19340;HTU21D;9804;52.350;6.684;2023-05-07T10:12:41;21.31;-6.00
19340;HTU21D;9804;52.350;6.684;2023-05-07T10:15:07;21.40;-6.00
19340;HTU21D;9804;52.350;6.684;2023-05-07T10:17:37;21.49;-6.00
19340;HTU21D;9804;52.350;6.684;2023-05-07T10:20:07;20.80;-6.00
19340;HTU21D;9804;52.350;6.684;2023-05-07T10:22:38;21.15;-6.00
19340;HTU21D;9804;52.350;6.684;2023-05-07T10:25:06;20.81;-6.00
19340;HTU21D;9804;52.350;6.684;2023-05-07T10:27:34;21.14;-6.00
19340;HTU21D;9804;52.350;6.684;2023-05-07T10:30:06;20.88;-6.00
19340;HTU21D;9804;52.350;6.684;2023-05-07T10:32:40;21.63;-6.00
19340;HTU21D;9804;52.350;6.684;2023-05-07T10:35:13;21.11;-6.00
19340;HTU21D;9804;52.350;6.684;2023-05-07T10:37:41;21.16;-6.00
19340;HTU21D;9804;52.350;6.684;2023-05-07T10:40:09;21.43;-6.00
19340;HTU21D;9804;52.350;6.684;2023-05-07T10:42:34;21.40;-6.00
19340;HTU21D;9804;52.350;6.684;2023-05-07T10:45:14;21.47;-6.00
19340;HTU21D;9804;52.350;6.684;2023-05-07T10:50:31;21.54;-6.00
19340;HTU21D;9804;52.350;6.684;2023-05-07T10:55:47;21.79;-6.00
19340;HTU21D;9804;52.350;6.684;2023-05-07T10:58:26;21.66;-6.00
19340;HTU21D;9804;52.350;6.684;2023-05-07T11:00:59;21.96;-6.00
19340;HTU21D;9804;52.350;6.684;2023-05-07T11:03:28;21.95;-6.00
19340;HTU21D;9804;52.350;6.684;2023-05-07T11:06:23;22.20;-6.00
19340;HTU21D;9804;52.350;6.684;2023-05-07T11:08:58;22.39;-6.00
19340;HTU21D;9804;52.350;6.684;2023-05-07T11:11:43;22.41;-6.00
19340;HTU21D;9804;52.350;6.684;2023-05-07T11:14:09;22.39;-6.00
19340;HTU21D;9804;52.350;6.684;2023-05-07T11:16:35;22.26;-6.00
19340;HTU21D;9804;52.350;6.684;2023-05-07T11:19:02;22.39;-6.00
19340;HTU21D;9804;52.350;6.684;2023-05-07T11:21:47;22.23;-6.00
19340;HTU21D;9804;52.350;6.684;2023-05-07T11:24:14;22.50;-6.00
19340;HTU21D;9804;52.350;6.684;2023-05-07T11:26:46;22.43;-6.00
19340;HTU21D;9804;52.350;6.684;2023-05-07T11:29:17;22.16;-6.00
19340;HTU21D;9804;52.350;6.684;2023-05-07T11:31:43;22.50;-6.00
19340;HTU21D;9804;52.350;6.684;2023-05-07T11:34:08;22.98;-6.00
19340;HTU21D;9804;52.350;6.684;2023-05-07T11:36:35;23.53;-6.00
19340;HTU21D;9804;52.350;6.684;2023-05-07T11:39:06;23.52;-6.00
19340;HTU21D;9804;52.350;6.684;2023-05-07T11:41:36;23.42;-6.00
19340;HTU21D;9804;52.350;6.684;2023-05-07T11:44:04;23.14;-6.00
19340;HTU21D;9804;52.350;6.684;2023-05-07T11:46:29;23.25;-6.00
19340;HTU21D;9804;52.350;6.684;2023-05-07T11:48:56;23.59;-6.00
19340;HTU21D;9804;52.350;6.684;2023-05-07T11:51:23;23.77;-6.00
19340;HTU21D;9804;52.350;6.684;2023-05-07T11:53:49;24.43;-6.00
19340;HTU21D;9804;52.350;6.684;2023-05-07T11:56:17;24.82;-6.00
19340;HTU21D;9804;52.350;6.684;2023-05-07T11:58:44;23.85;-6.00
19340;HTU21D;9804;52.350;6.684;2023-05-07T12:01:11;23.86;-6.00
19340;HTU21D;9804;52.350;6.684;2023-05-07T12:03:40;24.30;-6.00
19340;HTU21D;9804;52.350;6.684;2023-05-07T12:06:08;24.75;-6.00
19340;HTU21D;9804;52.350;6.684;2023-05-07T12:08:36;24.44;-6.00
19340;HTU21D;9804;52.350;6.684;2023-05-07T12:11:03;24.98;-6.00
19340;HTU21D;9804;52.350;6.684;2023-05-07T12:13:28;24.39;-6.00
19340;HTU21D;9804;52.350;6.684;2023-05-07T12:15:55;24.34;-6.00
19340;HTU21D;9804;52.350;6.684;2023-05-07T12:18:21;23.81;-6.00
19340;HTU21D;9804;52.350;6.684;2023-05-07T12:20:46;24.14;-6.00
19340;HTU21D;9804;52.350;6.684;2023-05-07T12:23:13;23.89;-6.00
19340;HTU21D;9804;52.350;6.684;2023-05-07T12:25:40;24.28;-6.00
19340;HTU21D;9804;52.350;6.684;2023-05-07T12:28:13;24.77;-6.00
19340;HTU21D;9804;52.350;6.684;2023-05-07T12:30:40;24.21;-6.00
19340;HTU21D;9804;52.350;6.684;2023-05-07T12:33:07;24.75;-6.00
19340;HTU21D;9804;52.350;6.684;2023-05-07T12:35:37;24.58;-6.00
19340;HTU21D;9804;52.350;6.684;2023-05-07T12:38:08;24.77;-6.00
19340;HTU21D;9804;52.350;6.684;2023-05-07T12:40:41;24.84;-6.00
19340;HTU21D;9804;52.350;6.684;2023-05-07T12:43:07;24.57;-6.00
19340;HTU21D;9804;52.350;6.684;2023-05-07T12:45:38;25.02;-6.00
19340;HTU21D;9804;52.350;6.684;2023-05-07T12:48:04;24.55;-6.00
19340;HTU21D;9804;52.350;6.684;2023-05-07T12:50:33;24.94;-6.00
19340;HTU21D;9804;52.350;6.684;2023-05-07T12:52:59;24.92;-6.00
19340;HTU21D;9804;52.350;6.684;2023-05-07T12:55:25;25.76;-6.00
19340;HTU21D;9804;52.350;6.684;2023-05-07T12:57:51;25.74;-6.00
19340;HTU21D;9804;52.350;6.684;2023-05-07T13:00:38;25.79;-6.00
19340;HTU21D;9804;52.350;6.684;2023-05-07T13:03:04;25.42;-6.00
19340;HTU21D;9804;52.350;6.684;2023-05-07T13:05:31;25.53;-6.00
19340;HTU21D;9804;52.350;6.684;2023-05-07T13:07:57;25.88;-6.00
19340;HTU21D;9804;52.350;6.684;2023-05-07T13:10:24;25.45;-6.00
19340;HTU21D;9804;52.350;6.684;2023-05-07T13:12:50;25.56;-6.00
19340;HTU21D;9804;52.350;6.684;2023-05-07T13:15:15;25.66;-6.00
19340;HTU21D;9804;52.350;6.684;2023-05-07T13:17:41;25.49;-6.00
19340;HTU21D;9804;52.350;6.684;2023-05-07T13:20:07;25.12;-6.00
19340;HTU21D;9804;52.350;6.684;2023-05-07T13:22:33;24.90;-6.00
19340;HTU21D;9804;52.350;6.684;2023-05-07T13:24:58;25.23;-6.00
19340;HTU21D;9804;52.350;6.684;2023-05-07T13:27:24;25.50;-6.00
19340;HTU21D;9804;52.350;6.684;2023-05-07T13:29:49;26.09;-6.00
19340;HTU21D;9804;52.350;6.684;2023-05-07T13:32:15;26.69;-6.00
19340;HTU21D;9804;52.350;6.684;2023-05-07T13:34:40;25.89;-6.00
19340;HTU21D;9804;52.350;6.684;2023-05-07T13:37:06;25.35;-6.00
19340;HTU21D;9804;52.350;6.684;2023-05-07T13:39:32;25.87;-6.00
19340;HTU21D;9804;52.350;6.684;2023-05-07T13:41:58;25.83;-6.00
19340;HTU21D;9804;52.350;6.684;2023-05-07T13:44:23;26.52;-6.00
19340;HTU21D;9804;52.350;6.684;2023-05-07T13:46:48;26.23;-6.00
19340;HTU21D;9804;52.350;6.684;2023-05-07T13:49:14;26.24;-6.00
19340;HTU21D;9804;52.350;6.684;2023-05-07T13:51:39;26.06;-6.00
19340;HTU21D;9804;52.350;6.684;2023-05-07T13:54:05;26.53;-6.00
19340;HTU21D;9804;52.350;6.684;2023-05-07T13:56:30;26.57;-6.00
19340;HTU21D;9804;52.350;6.684;2023-05-07T13:58:57;26.53;-6.00
19340;HTU21D;9804;52.350;6.684;2023-05-07T14:01:23;26.05;-6.00
19340;HTU21D;9804;52.350;6.684;2023-05-07T14:03:48;26.12;-6.00
19340;HTU21D;9804;52.350;6.684;2023-05-07T14:06:14;25.42;-6.00
19340;HTU21D;9804;52.350;6.684;2023-05-07T14:08:39;26.12;-6.00
19340;HTU21D;9804;52.350;6.684;2023-05-07T14:11:05;25.86;-6.00
19340;HTU21D;9804;52.350;6.684;2023-05-07T14:13:31;25.87;-6.00
19340;HTU21D;9804;52.350;6.684;2023-05-07T14:15:57;25.86;-6.00
19340;HTU21D;9804;52.350;6.684;2023-05-07T14:18:22;26.39;-6.00
19340;HTU21D;9804;52.350;6.684;2023-05-07T14:20:47;26.26;-6.00
19340;HTU21D;9804;52.350;6.684;2023-05-07T14:23:14;25.93;-6.00
19340;HTU21D;9804;52.350;6.684;2023-05-07T14:25:40;25.60;-6.00
19340;HTU21D;9804;52.350;6.684;2023-05-07T14:28:05;25.82;-6.00
19340;HTU21D;9804;52.350;6.684;2023-05-07T14:30:31;25.66;-6.00
19340;HTU21D;9804;52.350;6.684;2023-05-07T14:32:56;25.96;-6.00
19340;HTU21D;9804;52.350;6.684;2023-05-07T14:35:22;26.06;-6.00
19340;HTU21D;9804;52.350;6.684;2023-05-07T14:37:47;26.19;-6.00
19340;HTU21D;9804;52.350;6.684;2023-05-07T14:40:12;25.77;-6.00
19340;HTU21D;9804;52.350;6.684;2023-05-07T14:42:39;25.81;-6.00
19340;HTU21D;9804;52.350;6.684;2023-05-07T14:45:05;25.88;-6.00
19340;HTU21D;9804;52.350;6.684;2023-05-07T14:47:31;25.63;-6.00
19340;HTU21D;9804;52.350;6.684;2023-05-07T14:49:56;25.72;-6.00
19340;HTU21D;9804;52.350;6.684;2023-05-07T14:52:22;25.88;-6.00
19340;HTU21D;9804;52.350;6.684;2023-05-07T14:54:47;26.23;-6.00
19340;HTU21D;9804;52.350;6.684;2023-05-07T14:57:13;25.90;-6.00
19340;HTU21D;9804;52.350;6.684;2023-05-07T14:59:41;25.95;-6.00
19340;HTU21D;9804;52.350;6.684;2023-05-07T15:02:07;25.73;-6.00
19340;HTU21D;9804;52.350;6.684;2023-05-07T15:04:33;25.40;-6.00
19340;HTU21D;9804;52.350;6.684;2023-05-07T15:06:59;25.57;-6.00
19340;HTU21D;9804;52.350;6.684;2023-05-07T15:09:25;25.37;-6.00
19340;HTU21D;9804;52.350;6.684;2023-05-07T15:11:51;25.08;-6.00
19340;HTU21D;9804;52.350;6.684;2023-05-07T15:14:16;25.25;-6.00
19340;HTU21D;9804;52.350;6.684;2023-05-07T15:16:42;25.47;-6.00
19340;HTU21D;9804;52.350;6.684;2023-05-07T15:19:07;25.69;-6.00
19340;HTU21D;9804;52.350;6.684;2023-05-07T15:21:32;25.57;-6.00
19340;HTU21D;9804;52.350;6.684;2023-05-07T15:23:59;25.13;-6.00
19340;HTU21D;9804;52.350;6.684;2023-05-07T15:26:25;24.95;-6.00
19340;HTU21D;9804;52.350;6.684;2023-05-07T15:28:51;25.16;-6.00
19340;HTU21D;9804;52.350;6.684;2023-05-07T15:31:16;24.97;-6.00